createdAt,value
2018-07-19T16:24:45.575Z,26.60
2018-07-19T16:27:16.978Z,26.45
2018-07-19T16:29:48.005Z,26.61
2018-07-19T16:32:19.059Z,26.41
2018-07-19T16:34:50.251Z,26.53
2018-07-19T16:37:21.392Z,26.55
2018-07-19T16:39:52.839Z,26.39
2018-07-19T16:42:23.957Z,26.23
2018-07-19T16:44:55.143Z,26.40
2018-07-19T16:47:26.880Z,26.18
2018-07-19T16:49:58.274Z,26.22
2018-07-19T16:52:29.451Z,26.22
2018-07-19T16:55:01.030Z,26.22
2018-07-19T16:57:32.625Z,26.22
2018-07-19T17:00:04.458Z,26.22
2018-07-19T17:02:35.603Z,26.14
2018-07-19T17:05:07.730Z,26.16
2018-07-19T17:07:38.721Z,26.01
2018-07-19T17:10:10.430Z,26.06
2018-07-19T17:12:42.003Z,26.10
2018-07-19T17:15:13.148Z,26.10
2018-07-19T17:17:44.546Z,25.89
2018-07-19T17:20:15.700Z,26.05
2018-07-19T17:22:46.850Z,25.96
2018-07-19T17:25:18.144Z,25.93
2018-07-19T17:27:49.435Z,25.77
2018-07-19T17:30:21.907Z,25.80
2018-07-19T17:32:54.599Z,25.61
2018-07-19T17:35:25.522Z,25.56
2018-07-19T17:37:56.776Z,25.63
2018-07-19T17:40:28.200Z,25.74
2018-07-19T17:43:00.609Z,25.58
2018-07-19T17:45:32.144Z,25.53
2018-07-19T17:48:04.611Z,25.36
2018-07-19T17:50:36.667Z,25.46
2018-07-19T17:53:08.220Z,25.50
2018-07-19T17:55:39.301Z,25.29
2018-07-19T17:58:10.875Z,25.05
2018-07-19T18:00:44.203Z,25.10
2018-07-19T18:03:15.231Z,24.95
2018-07-19T18:05:46.556Z,25.06
2018-07-19T18:08:17.632Z,25.12
2018-07-19T18:10:49.988Z,25.10
2018-07-19T18:13:21.468Z,25.13
2018-07-19T18:15:52.532Z,24.98
2018-07-19T18:18:23.947Z,24.90
2018-07-19T18:20:54.980Z,24.89
2018-07-19T18:23:26.124Z,24.85
2018-07-19T18:25:57.458Z,24.78
2018-07-19T18:28:28.807Z,24.86
2018-07-19T18:31:01.202Z,24.69
2018-07-19T18:33:33.798Z,24.61
2018-07-19T18:36:04.990Z,24.62
2018-07-19T18:38:36.371Z,24.70
2018-07-19T18:41:07.703Z,24.55
2018-07-19T18:43:38.801Z,24.53
2018-07-19T18:46:10.129Z,24.49
2018-07-19T18:48:41.563Z,24.45
2018-07-19T18:51:12.731Z,24.50
2018-07-19T18:53:44.140Z,24.35
2018-07-19T18:56:15.327Z,24.26
2018-07-19T18:58:47.142Z,24.06
2018-07-19T19:01:18.294Z,23.99
2018-07-19T19:03:49.735Z,23.94
2018-07-19T19:06:20.932Z,23.79
2018-07-19T19:08:52.444Z,23.70
2018-07-19T19:11:25.002Z,23.80
2018-07-19T19:13:56.372Z,23.63
2018-07-19T19:16:27.848Z,23.59
2018-07-19T19:19:00.320Z,23.55
2018-07-19T19:21:32.156Z,23.47
2018-07-19T19:24:03.631Z,23.52
2018-07-19T19:26:34.741Z,23.63
2018-07-19T19:29:06.189Z,23.42
2018-07-19T19:31:37.203Z,23.28
2018-07-19T19:34:11.242Z,23.15
2018-07-19T19:36:43.878Z,22.96
2018-07-19T19:39:14.907Z,22.80
2018-07-19T19:41:46.704Z,22.61
2018-07-19T19:44:17.684Z,22.53
2018-07-19T19:46:48.898Z,22.35
2018-07-19T19:49:20.143Z,22.33
2018-07-19T19:52:10.679Z,22.25
2018-07-19T19:54:42.431Z,22.16
2018-07-19T19:59:54.523Z,21.98
2018-07-19T20:02:27.644Z,21.87
2018-07-19T20:05:00.258Z,21.68
2018-07-19T20:07:32.636Z,21.65
2018-07-19T20:10:07.672Z,21.37
2018-07-19T20:12:39.995Z,21.15
2018-07-19T20:15:11.603Z,21.02
2018-07-19T20:17:42.928Z,21.12
2018-07-19T20:20:13.868Z,21.04
2018-07-19T20:22:45.264Z,20.99
2018-07-19T20:25:16.317Z,20.87
2018-07-19T20:27:47.583Z,20.61
2018-07-19T20:30:18.791Z,20.48
2018-07-19T20:32:49.850Z,20.49
2018-07-19T20:35:20.867Z,20.28
2018-07-19T20:37:51.831Z,20.12
2018-07-19T20:40:22.871Z,19.97
2018-07-19T20:42:54.523Z,20.14
2018-07-19T20:45:25.606Z,20.02
2018-07-19T20:47:56.815Z,19.82
2018-07-19T20:50:27.877Z,19.89
2018-07-19T20:52:58.957Z,19.79
2018-07-19T20:55:30.731Z,19.63
2018-07-19T20:58:02.408Z,19.55
2018-07-19T21:00:33.818Z,19.54
2018-07-19T21:03:05.801Z,19.32
2018-07-19T21:05:38.306Z,19.23
2018-07-19T21:08:11.350Z,19.20
2018-07-19T21:10:42.437Z,19.35
2018-07-19T21:13:14.675Z,19.14
2018-07-19T21:15:46.135Z,19.15
2018-07-19T21:18:17.548Z,19.18
2018-07-19T21:20:48.602Z,19.16
2018-07-19T21:23:21.093Z,19.04
2018-07-19T21:25:52.743Z,19.04
2018-07-19T21:28:23.765Z,18.99
2018-07-19T21:30:54.963Z,18.93
2018-07-19T21:33:25.835Z,18.77
2018-07-19T21:35:57.015Z,18.59
2018-07-19T21:38:28.266Z,18.83
2018-07-19T21:40:59.787Z,18.80
2018-07-19T21:43:31.350Z,18.51
2018-07-19T21:46:02.443Z,18.21
2018-07-19T21:48:33.460Z,18.32
2018-07-19T21:51:05.218Z,18.26
2018-07-19T21:53:36.259Z,18.31
2018-07-19T21:56:07.153Z,18.09
2018-07-19T21:58:38.226Z,18.05
2018-07-19T22:01:10.556Z,18.21
2018-07-19T22:03:41.549Z,17.95
2018-07-19T22:06:12.880Z,18.05
2018-07-19T22:08:44.420Z,17.87
2018-07-19T22:11:15.450Z,18.01
2018-07-19T22:13:46.597Z,17.97
2018-07-19T22:16:18.955Z,17.86
2018-07-19T22:18:50.067Z,18.08
2018-07-19T22:21:21.556Z,17.96
2018-07-19T22:23:52.639Z,17.88
2018-07-19T22:26:23.659Z,17.66
2018-07-19T22:28:54.744Z,17.75
2018-07-19T22:31:25.969Z,17.91
2018-07-19T22:33:57.051Z,17.86
2018-07-19T22:36:28.198Z,17.72
2018-07-19T22:38:59.224Z,17.51
2018-07-19T22:41:30.375Z,17.52
2018-07-19T22:44:01.494Z,17.33
2018-07-19T22:46:32.903Z,17.43
2018-07-19T22:49:03.811Z,17.21
2018-07-19T22:51:35.023Z,17.11
2018-07-19T22:54:06.594Z,17.34
2018-07-19T22:56:37.763Z,17.29
2018-07-19T22:59:08.828Z,17.26
2018-07-19T23:01:39.867Z,17.33
2018-07-19T23:04:11.060Z,17.01
2018-07-19T23:06:42.275Z,17.16
2018-07-19T23:09:13.409Z,17.12
2018-07-19T23:11:44.508Z,17.11
2018-07-19T23:14:15.452Z,17.13
2018-07-19T23:16:46.546Z,16.96
2018-07-19T23:19:17.555Z,16.91
2018-07-19T23:21:48.788Z,16.72
2018-07-19T23:24:20.316Z,16.53
2018-07-19T23:26:51.562Z,16.70
2018-07-19T23:29:23.181Z,16.68
2018-07-19T23:31:54.630Z,16.67
2018-07-19T23:34:25.642Z,16.65
2018-07-19T23:37:03.489Z,16.56
2018-07-19T23:39:52.247Z,16.47
2018-07-19T23:42:27.673Z,16.64
2018-07-19T23:46:07.489Z,16.44
2018-07-19T23:48:38.642Z,16.26
2018-07-19T23:51:09.814Z,16.07
2018-07-19T23:53:41.097Z,16.40
2018-07-19T23:56:15.987Z,16.33
2018-07-19T23:58:51.213Z,16.29
